Time;durP1;ratioP1;P1;durP2;ratioP2;P2;SDS_P1;SDS_P2;PMS_P1;PMS_P2;Temp;Humidity;BMP_temperature;BMP_pressure;BME280_temperature;BME280_humidity;BME280_pressure;Samples;Min_cycle;Max_cycle;Signal;HPM_P1;HPM_P2
2023/08/28 00:02:13;;;;;;;0.20;0.17;;;11.60;99.90;;;;;;5097945;28;20078;-75
2023/08/28 00:04:39;;;;;;;0.00;0.00;;;11.60;99.90;;;;;;5105074;28;20051;-75
2023/08/28 00:07:04;;;;;;;0.20;0.13;;;12.40;99.90;;;;;;5104567;28;20085;-76
2023/08/28 00:09:30;;;;;;;0.00;0.00;;;11.70;99.90;;;;;;5094566;28;20163;-75
2023/08/28 00:11:56;;;;;;;0.00;0.00;;;11.60;99.90;;;;;;5100138;28;20127;-75
2023/08/28 00:14:23;;;;;;;0.10;0.10;;;11.60;99.90;;;;;;5104924;28;20047;-75
2023/08/28 00:16:49;;;;;;;0.00;0.00;;;11.60;99.90;;;;;;5104664;28;20139;-75
2023/08/28 00:19:15;;;;;;;0.10;0.10;;;12.90;99.90;;;;;;5088807;28;20167;-76
2023/08/28 00:21:40;;;;;;;0.00;0.00;;;11.60;99.90;;;;;;5104492;28;20050;-75
2023/08/28 00:24:06;;;;;;;0.00;0.00;;;11.70;99.90;;;;;;5104218;28;20146;-75
2023/08/28 00:26:32;;;;;;;0.00;0.00;;;11.70;99.90;;;;;;5102632;28;20071;-75
2023/08/28 00:28:58;;;;;;;0.00;0.00;;;11.70;99.90;;;;;;5101637;28;20043;-75
2023/08/28 00:31:23;;;;;;;0.43;0.22;;;11.80;99.90;;;;;;5106011;28;20044;-75
2023/08/28 00:33:49;;;;;;;0.00;0.00;;;11.90;99.90;;;;;;5107167;28;20044;-75
2023/08/28 00:36:16;;;;;;;0.00;0.00;;;11.80;99.90;;;;;;5108130;28;20114;-75
2023/08/28 00:38:41;;;;;;;0.00;0.00;;;11.80;99.90;;;;;;5103916;28;20047;-75
2023/08/28 00:41:07;;;;;;;0.00;0.00;;;11.70;99.90;;;;;;5100032;28;20032;-75
2023/08/28 00:43:33;;;;;;;0.08;0.00;;;11.60;99.90;;;;;;5106379;28;20071;-76
2023/08/28 00:46:00;;;;;;;0.10;0.10;;;11.60;99.90;;;;;;5103198;27;20173;-76
2023/08/28 00:48:27;;;;;;;0.00;0.00;;;11.50;99.90;;;;;;5104744;28;20097;-75
2023/08/28 00:50:53;;;;;;;0.00;0.00;;;11.40;99.90;;;;;;5103743;28;20036;-75
2023/08/28 00:53:20;;;;;;;0.00;0.00;;;11.40;99.90;;;;;;5104906;28;20040;-75
2023/08/28 00:55:46;;;;;;;0.00;0.00;;;11.40;99.90;;;;;;5106760;28;20036;-75
2023/08/28 00:58:12;;;;;;;0.00;0.00;;;11.30;99.90;;;;;;5107753;28;20040;-75
2023/08/28 01:00:39;;;;;;;0.10;0.10;;;11.20;99.90;;;;;;5091393;28;20055;-75
2023/08/28 01:03:05;;;;;;;0.00;0.00;;;11.20;99.90;;;;;;5093331;28;20044;-75
2023/08/28 01:05:43;;;;;;;0.25;0.15;;;11.10;99.90;;;;;;5093161;28;20040;-75
2023/08/28 01:08:17;;;;;;;0.10;0.10;;;11.00;99.90;;;;;;5097251;28;20036;-76
2023/08/28 01:10:53;;;;;;;0.25;0.25;;;11.10;99.90;;;;;;5104022;28;20063;-75
2023/08/28 01:13:36;;;;;;;0.00;0.00;;;11.00;99.90;;;;;;5100473;28;20054;-74
2023/08/28 01:16:04;;;;;;;0.00;0.00;;;10.90;99.90;;;;;;5099195;28;20047;-75
2023/08/28 01:18:30;;;;;;;0.00;0.00;;;10.80;99.90;;;;;;5107603;28;20504;-76
2023/08/28 01:20:57;;;;;;;0.00;0.00;;;10.70;99.90;;;;;;5104831;28;20040;-75
2023/08/28 01:23:43;;;;;;;0.00;0.00;;;10.70;99.90;;;;;;5107657;28;20031;-75
2023/08/28 01:26:09;;;;;;;0.45;0.43;;;10.70;99.90;;;;;;5106500;28;20040;-75
2023/08/28 01:28:34;;;;;;;0.05;0.05;;;10.60;99.90;;;;;;5104293;28;20047;-75
2023/08/28 01:31:04;;;;;;;0.00;0.00;;;10.50;99.90;;;;;;5108928;28;20036;-75
2023/08/28 01:33:31;;;;;;;0.28;0.20;;;10.50;99.90;;;;;;5104780;27;20056;-75
2023/08/28 01:36:15;;;;;;;0.10;0.10;;;10.60;99.90;;;;;;5104202;28;20058;-75
2023/08/28 01:39:04;;;;;;;0.00;0.00;;;10.60;99.90;;;;;;5095501;28;20482;-75
2023/08/28 01:41:32;;;;;;;0.45;0.25;;;10.60;99.90;;;;;;5096586;28;20048;-75
2023/08/28 01:44:02;;;;;;;0.45;0.43;;;10.60;99.90;;;;;;5107290;28;20067;-75
2023/08/28 01:46:32;;;;;;;0.00;0.00;;;10.50;99.90;;;;;;5106163;28;20092;-75
2023/08/28 01:48:57;;;;;;;0.00;0.00;;;10.40;99.90;;;;;;5102846;28;20406;-75
2023/08/28 01:51:23;;;;;;;0.00;0.00;;;10.40;99.90;;;;;;5099575;28;20032;-75
2023/08/28 01:53:49;;;;;;;0.17;0.10;;;10.30;99.90;;;;;;5106123;28;20448;-76
2023/08/28 01:56:18;;;;;;;0.05;0.05;;;10.30;99.90;;;;;;5106713;28;20485;-75
2023/08/28 01:58:48;;;;;;;0.00;0.00;;;10.50;99.90;;;;;;5105547;28;20076;-75
2023/08/28 02:01:14;;;;;;;0.00;0.00;;;10.50;99.90;;;;;;5097340;28;20127;-75
2023/08/28 02:03:40;;;;;;;0.00;0.00;;;10.50;99.90;;;;;;5103469;28;20083;-75
2023/08/28 02:06:06;;;;;;;0.00;0.00;;;10.60;99.90;;;;;;5106785;28;20043;-75
2023/08/28 02:08:32;;;;;;;0.00;0.00;;;10.70;99.90;;;;;;5102565;28;20154;-76
2023/08/28 02:10:58;;;;;;;0.45;0.45;;;10.70;99.90;;;;;;5097989;28;20074;-75
2023/08/28 02:13:23;;;;;;;0.00;0.00;;;10.80;99.90;;;;;;5103028;28;20101;-75
2023/08/28 02:15:49;;;;;;;0.00;0.00;;;10.90;99.90;;;;;;5103143;28;20487;-75
2023/08/28 02:18:14;;;;;;;0.00;0.00;;;10.80;99.90;;;;;;5110490;28;20131;-75
2023/08/28 02:20:40;;;;;;;0.38;0.10;;;10.70;99.90;;;;;;5098574;28;20519;-75
2023/08/28 02:23:06;;;;;;;0.00;0.00;;;10.70;99.90;;;;;;5105276;28;20035;-75
2023/08/28 02:25:31;;;;;;;0.00;0.00;;;10.60;99.90;;;;;;5103239;28;20040;-75
2023/08/28 02:27:57;;;;;;;0.28;0.28;;;10.60;99.90;;;;;;5102778;28;20032;-75
2023/08/28 02:30:23;;;;;;;0.32;0.20;;;10.60;99.90;;;;;;5109865;28;20047;-75
2023/08/28 02:32:49;;;;;;;0.00;0.00;;;10.50;99.90;;;;;;5103028;28;20035;-75
2023/08/28 02:35:15;;;;;;;0.30;0.22;;;10.40;99.90;;;;;;5103263;28;20395;-74
2023/08/28 02:37:40;;;;;;;0.15;0.10;;;10.60;99.90;;;;;;5105789;28;20031;-75
2023/08/28 02:40:09;;;;;;;0.00;0.00;;;10.60;99.90;;;;;;5103884;28;20374;-75
2023/08/28 02:42:35;;;;;;;0.00;0.00;;;10.50;99.90;;;;;;5101910;28;20047;-74
2023/08/28 02:45:01;;;;;;;0.00;0.00;;;10.60;99.90;;;;;;5102686;28;20036;-75
2023/08/28 02:47:26;;;;;;;0.10;0.10;;;10.60;99.90;;;;;;5103018;28;20165;-74
2023/08/28 02:49:52;;;;;;;0.10;0.10;;;10.60;99.90;;;;;;5102379;28;20124;-75
2023/08/28 02:52:18;;;;;;;0.03;0.03;;;10.60;99.90;;;;;;5102768;28;20131;-75
2023/08/28 02:54:43;;;;;;;0.08;0.03;;;10.70;99.90;;;;;;5103046;28;20036;-75
2023/08/28 02:57:09;;;;;;;0.05;0.00;;;10.60;99.90;;;;;;5105549;28;20093;-74
2023/08/28 02:59:35;;;;;;;0.00;0.00;;;10.60;99.90;;;;;;5097096;28;20115;-75
2023/08/28 03:02:00;;;;;;;4.63;0.65;;;10.60;99.90;;;;;;5094111;28;20042;-75
2023/08/28 03:04:26;;;;;;;0.00;0.00;;;10.50;99.90;;;;;;5102235;28;20487;-75
2023/08/28 03:06:52;;;;;;;0.00;0.00;;;11.20;99.90;;;;;;5103377;28;20051;-74
2023/08/28 03:09:17;;;;;;;0.00;0.00;;;10.50;99.90;;;;;;5102921;28;20040;-74
2023/08/28 03:11:43;;;;;;;0.00;0.00;;;10.40;99.90;;;;;;5098316;28;20055;-75
2023/08/28 03:14:09;;;;;;;0.00;0.00;;;10.40;99.90;;;;;;5102134;28;20539;-75
2023/08/28 03:16:35;;;;;;;0.00;0.00;;;10.20;99.90;;;;;;5101903;28;20047;-74
2023/08/28 03:19:00;;;;;;;2.53;0.20;;;10.20;99.90;;;;;;5103126;28;20044;-75
2023/08/28 03:21:26;;;;;;;0.00;0.00;;;10.20;99.90;;;;;;5096035;28;20402;-75
2023/08/28 03:23:52;;;;;;;0.00;0.00;;;10.40;99.90;;;;;;5102184;28;20443;-75
2023/08/28 03:26:18;;;;;;;0.15;0.13;;;10.50;99.90;;;;;;5104306;28;20051;-75
2023/08/28 03:28:44;;;;;;;0.32;0.20;;;10.60;99.90;;;;;;5105106;28;20135;-75
2023/08/28 03:31:09;;;;;;;0.03;0.03;;;10.60;99.90;;;;;;5097104;28;20150;-75
2023/08/28 03:33:35;;;;;;;0.20;0.17;;;10.50;99.90;;;;;;5102354;28;20050;-77
2023/08/28 03:36:02;;;;;;;1.45;1.08;;;10.50;99.90;;;;;;5102236;28;20032;-75
2023/08/28 03:38:27;;;;;;;0.20;0.20;;;10.40;99.90;;;;;;5103751;28;20123;-75
2023/08/28 03:40:53;;;;;;;0.00;0.00;;;10.40;99.90;;;;;;5104699;28;20072;-75
2023/08/28 03:43:18;;;;;;;0.00;0.00;;;10.40;99.90;;;;;;5098878;28;20560;-75
2023/08/28 03:45:44;;;;;;;0.10;0.10;;;10.40;99.90;;;;;;5105419;28;20036;-75
2023/08/28 03:48:10;;;;;;;3.33;1.98;;;10.40;99.90;;;;;;5105224;28;20459;-75
2023/08/28 03:50:35;;;;;;;0.00;0.00;;;10.40;99.90;;;;;;5102897;28;20043;-75
2023/08/28 03:53:01;;;;;;;1.02;0.20;;;10.40;99.90;;;;;;5101882;28;20466;-73
2023/08/28 03:55:29;;;;;;;0.17;0.17;;;10.40;99.90;;;;;;5102138;28;20375;-75
2023/08/28 03:57:59;;;;;;;0.08;0.08;;;10.40;99.90;;;;;;5104735;28;20039;-75
2023/08/28 04:00:25;;;;;;;0.20;0.10;;;10.50;99.90;;;;;;5102620;28;20043;-75
2023/08/28 04:02:51;;;;;;;0.00;0.00;;;10.40;99.90;;;;;;5108429;28;20059;-75
2023/08/28 04:05:17;;;;;;;0.00;0.00;;;10.40;99.90;;;;;;5108985;28;20035;-75
2023/08/28 04:07:43;;;;;;;0.00;0.00;;;10.40;99.90;;;;;;5107282;28;20043;-75
2023/08/28 04:10:10;;;;;;;0.32;0.32;;;10.30;99.90;;;;;;5107805;28;20028;-74
2023/08/28 04:12:37;;;;;;;0.17;0.10;;;10.30;99.90;;;;;;5102456;28;20109;-74
2023/08/28 04:15:04;;;;;;;0.00;0.00;;;10.20;99.90;;;;;;5105874;28;20540;-74
2023/08/28 04:17:30;;;;;;;0.00;0.00;;;10.10;99.90;;;;;;5108651;28;20031;-74
2023/08/28 04:19:56;;;;;;;1.25;0.35;;;10.00;99.90;;;;;;5098449;28;20418;-73
2023/08/28 04:22:22;;;;;;;0.15;0.15;;;10.00;99.90;;;;;;5103754;28;20082;-74
2023/08/28 04:24:51;;;;;;;0.00;0.00;;;10.00;99.90;;;;;;5105075;28;20469;-74
2023/08/28 04:27:17;;;;;;;0.35;0.35;;;10.10;99.90;;;;;;5107259;28;20557;-74
2023/08/28 04:29:43;;;;;;;0.00;0.00;;;10.10;99.90;;;;;;5101759;28;20068;-74
2023/08/28 04:32:09;;;;;;;0.00;0.00;;;10.10;99.90;;;;;;5102489;28;20059;-74
2023/08/28 04:34:35;;;;;;;0.00;0.00;;;10.00;99.90;;;;;;5108597;28;20046;-73
2023/08/28 04:37:04;;;;;;;0.00;0.00;;;9.90;99.90;;;;;;5108385;28;20052;-75
2023/08/28 04:39:29;;;;;;;0.00;0.00;;;9.90;99.90;;;;;;5104422;28;20040;-75
2023/08/28 04:41:55;;;;;;;0.00;0.00;;;9.90;99.90;;;;;;5101179;28;20043;-75
2023/08/28 04:44:20;;;;;;;6.93;1.10;;;9.90;99.90;;;;;;5102086;28;20074;-75
2023/08/28 04:46:47;;;;;;;0.00;0.00;;;9.90;99.90;;;;;;5105123;28;20384;-75
2023/08/28 04:49:13;;;;;;;0.10;0.10;;;9.80;99.90;;;;;;5103582;28;20040;-75
2023/08/28 04:51:38;;;;;;;0.10;0.10;;;9.80;99.90;;;;;;5104657;28;20036;-75
2023/08/28 04:54:04;;;;;;;0.00;0.00;;;9.80;99.90;;;;;;5107957;28;20493;-74
2023/08/28 04:56:30;;;;;;;0.22;0.08;;;9.90;99.90;;;;;;5107553;28;20051;-75
2023/08/28 04:58:55;;;;;;;0.00;0.00;;;9.80;99.90;;;;;;5102092;28;20040;-75
2023/08/28 05:01:21;;;;;;;0.00;0.00;;;9.90;99.90;;;;;;5097600;28;20042;-75
2023/08/28 05:03:48;;;;;;;0.00;0.00;;;9.80;99.90;;;;;;5102610;28;20501;-76
2023/08/28 05:06:13;;;;;;;0.32;0.32;;;9.80;99.90;;;;;;5104771;28;20055;-76
2023/08/28 05:08:39;;;;;;;0.00;0.00;;;9.80;99.90;;;;;;5094854;28;20484;-76
2023/08/28 05:11:04;;;;;;;0.00;0.00;;;9.80;99.90;;;;;;5103628;28;20078;-76
2023/08/28 05:13:30;;;;;;;3.20;0.32;;;9.90;99.90;;;;;;5099452;28;20509;-75
2023/08/28 05:15:56;;;;;;;0.75;0.75;;;9.90;99.90;;;;;;5102126;28;20093;-75
2023/08/28 05:18:22;;;;;;;0.10;0.10;;;10.00;99.90;;;;;;5104495;28;20039;-75
2023/08/28 05:20:47;;;;;;;0.00;0.00;;;10.10;99.90;;;;;;5101049;28;20118;-76
2023/08/28 05:23:13;;;;;;;0.20;0.20;;;10.10;99.90;;;;;;5103187;28;20129;-76
2023/08/28 05:25:39;;;;;;;0.95;0.60;;;10.20;99.90;;;;;;5104345;28;20043;-76
2023/08/28 05:28:05;;;;;;;0.10;0.10;;;10.30;99.90;;;;;;5105928;28;20036;-74
2023/08/28 05:30:30;;;;;;;0.52;0.47;;;10.30;99.90;;;;;;5100337;28;20081;-75
2023/08/28 05:32:56;;;;;;;0.00;0.00;;;10.40;99.90;;;;;;5103892;28;20039;-75
2023/08/28 05:35:22;;;;;;;0.00;0.00;;;10.60;99.90;;;;;;5105543;28;20044;-75
2023/08/28 05:37:47;;;;;;;0.30;0.10;;;10.50;99.90;;;;;;5107182;28;20493;-75
2023/08/28 05:40:15;;;;;;;0.20;0.20;;;10.70;99.90;;;;;;5106808;27;20122;-75
2023/08/28 05:42:45;;;;;;;0.75;0.57;;;10.60;99.90;;;;;;5093786;28;20532;-75
2023/08/28 05:45:11;;;;;;;0.00;0.00;;;10.60;99.90;;;;;;5100851;28;20036;-75
2023/08/28 05:47:37;;;;;;;0.30;0.30;;;10.70;99.90;;;;;;5102840;28;20047;-75
2023/08/28 05:50:03;;;;;;;0.77;0.32;;;10.80;99.90;;;;;;5103902;28;20036;-75
2023/08/28 05:52:29;;;;;;;0.63;0.25;;;10.90;99.90;;;;;;5103345;28;20176;-75
2023/08/28 05:54:55;;;;;;;0.10;0.10;;;11.00;99.90;;;;;;5101333;28;20062;-75
2023/08/28 05:57:23;;;;;;;0.00;0.00;;;11.00;99.90;;;;;;5101612;28;20403;-74
2023/08/28 05:59:51;;;;;;;0.03;0.03;;;11.10;99.90;;;;;;5103296;28;20128;-74
2023/08/28 06:02:17;;;;;;;0.57;0.57;;;11.10;99.90;;;;;;5105541;28;20040;-74
2023/08/28 06:04:47;;;;;;;0.38;0.38;;;11.20;99.90;;;;;;5104950;28;20040;-74
2023/08/28 06:07:13;;;;;;;0.20;0.20;;;11.40;99.90;;;;;;5102231;28;20036;-74
2023/08/28 06:09:39;;;;;;;0.35;0.20;;;12.70;99.90;;;;;;5102536;28;20040;-74
2023/08/28 06:12:05;;;;;;;0.03;0.03;;;11.60;99.90;;;;;;5103641;28;20057;-74
2023/08/28 06:14:31;;;;;;;0.00;0.00;;;11.80;99.90;;;;;;5086737;28;20040;-74
2023/08/28 06:16:56;;;;;;;0.05;0.05;;;12.30;99.90;;;;;;5098102;28;20493;-74
2023/08/28 06:19:22;;;;;;;0.10;0.10;;;13.40;99.90;;;;;;5094352;28;20041;-74
2023/08/28 06:21:48;;;;;;;1.58;0.17;;;14.10;99.90;;;;;;5095536;28;20134;-74
2023/08/28 06:24:14;;;;;;;1.38;0.90;;;14.50;99.90;;;;;;5102984;28;20115;-74
2023/08/28 06:26:42;;;;;;;0.43;0.35;;;15.10;99.90;;;;;;5105247;28;20469;-74
2023/08/28 06:29:07;;;;;;;0.00;0.00;;;15.60;99.90;;;;;;5104375;28;20122;-74
2023/08/28 06:31:33;;;;;;;0.00;0.00;;;16.00;99.90;;;;;;5101927;28;20115;-74
2023/08/28 06:33:59;;;;;;;0.00;0.00;;;16.40;99.90;;;;;;5101983;28;20401;-74
2023/08/28 06:36:24;;;;;;;0.90;0.52;;;16.80;99.90;;;;;;5103678;28;20040;-74
2023/08/28 06:38:52;;;;;;;5.57;1.20;;;17.30;1.00;;;;;;5105286;27;20046;-74
2023/08/28 06:41:21;;;;;;;0.20;0.20;;;17.60;1.00;;;;;;5095447;28;20491;-74
2023/08/28 06:43:49;;;;;;;0.00;0.00;;;17.80;99.90;;;;;;5093999;28;20494;-74
2023/08/28 06:46:15;;;;;;;0.55;0.35;;;18.00;1.00;;;;;;5090070;28;20086;-74
2023/08/28 06:48:44;;;;;;;0.20;0.17;;;18.20;96.80;;;;;;5093858;28;20092;-74
2023/08/28 06:51:11;;;;;;;0.00;0.00;;;18.50;1.00;;;;;;5095123;28;20036;-75
2023/08/28 06:53:37;;;;;;;0.60;0.43;;;18.90;1.00;;;;;;5103234;28;20509;-75
2023/08/28 06:56:04;;;;;;;0.00;0.00;;;19.10;7.40;;;;;;5101735;28;20036;-75
2023/08/28 06:58:30;;;;;;;0.30;0.00;;;19.10;1.00;;;;;;5101321;28;20079;-75
2023/08/28 07:00:55;;;;;;;0.00;0.00;;;19.50;99.90;;;;;;5104269;28;20071;-75
2023/08/28 07:03:21;;;;;;;0.17;0.10;;;19.70;99.90;;;;;;5104396;28;20044;-75
2023/08/28 07:05:47;;;;;;;0.45;0.43;;;19.90;99.90;;;;;;5103472;28;20042;-75
2023/08/28 07:08:12;;;;;;;0.30;0.28;;;20.00;1.00;;;;;;5101322;28;20036;-75
2023/08/28 07:10:38;;;;;;;0.03;0.03;;;20.20;99.90;;;;;;5101432;28;20125;-75
2023/08/28 07:13:03;;;;;;;0.10;0.10;;;20.60;1.00;;;;;;5103881;28;20094;-75
2023/08/28 07:15:49;;;;;;;0.00;0.00;;;21.10;1.00;;;;;;5104680;28;20482;-75
2023/08/28 07:18:16;;;;;;;0.10;0.10;;;21.60;99.90;;;;;;5093046;28;20066;-75
2023/08/28 07:20:42;;;;;;;0.20;0.20;;;21.90;99.90;;;;;;5100988;28;20044;-76
2023/08/28 07:23:09;;;;;;;0.22;0.22;;;22.10;1.00;;;;;;5102777;28;20398;-76
2023/08/28 07:25:34;;;;;;;0.00;0.00;;;22.40;99.90;;;;;;5101785;28;20054;-76
2023/08/28 07:28:00;;;;;;;0.32;0.13;;;22.40;99.90;;;;;;5101351;28;20040;-76
2023/08/28 07:30:25;;;;;;;0.00;0.00;;;22.60;99.90;;;;;;5098101;28;20079;-75
2023/08/28 07:32:51;;;;;;;1.38;0.57;;;22.70;99.90;;;;;;5098142;28;20058;-76
2023/08/28 07:35:16;;;;;;;0.00;0.00;;;22.70;99.90;;;;;;5100408;28;20055;-76
2023/08/28 07:37:42;;;;;;;0.20;0.20;;;23.00;99.90;;;;;;5105604;28;20075;-75
2023/08/28 07:40:09;;;;;;;0.22;0.20;;;23.30;99.90;;;;;;5105602;28;20039;-75
2023/08/28 07:42:34;;;;;;;0.00;0.00;;;23.30;99.90;;;;;;5102241;28;20074;-76
2023/08/28 07:45:00;;;;;;;0.32;0.32;;;23.30;99.90;;;;;;5100458;28;20032;-76
2023/08/28 07:47:27;;;;;;;0.20;0.10;;;23.30;99.90;;;;;;5102893;28;20047;-75
2023/08/28 07:49:53;;;;;;;0.00;0.00;;;23.50;99.90;;;;;;5105201;28;20509;-75
2023/08/28 07:52:19;;;;;;;0.00;0.00;;;23.50;77.60;;;;;;5105129;28;20078;-75
2023/08/28 07:54:44;;;;;;;0.00;0.00;;;23.80;97.60;;;;;;5102236;28;20075;-75
2023/08/28 07:57:10;;;;;;;0.00;0.00;;;23.80;99.90;;;;;;5101820;28;20048;-76
2023/08/28 07:59:36;;;;;;;4.85;1.13;;;24.00;99.90;;;;;;5102566;28;20108;-76
2023/08/28 08:02:02;;;;;;;0.10;0.08;;;24.00;99.90;;;;;;5105026;28;20093;-75
2023/08/28 08:04:28;;;;;;;0.43;0.03;;;24.30;67.10;;;;;;5104930;28;20093;-76
2023/08/28 08:06:53;;;;;;;0.00;0.00;;;24.50;82.80;;;;;;5102551;28;20043;-76
2023/08/28 08:09:19;;;;;;;0.00;0.00;;;24.60;92.40;;;;;;5101627;28;20044;-76
2023/08/28 08:11:45;;;;;;;0.00;0.00;;;24.70;54.30;;;;;;5101363;28;20059;-76
2023/08/28 08:14:10;;;;;;;0.00;0.00;;;24.80;63.80;;;;;;5104702;28;20549;-76
2023/08/28 08:16:36;;;;;;;1.55;0.98;;;25.20;50.20;;;;;;5104868;28;20120;-76
2023/08/28 08:19:02;;;;;;;0.13;0.10;;;25.20;10.40;;;;;;5103105;28;20075;-75
2023/08/28 08:21:28;;;;;;;0.00;0.00;;;25.20;16.40;;;;;;5101538;28;20040;-76
2023/08/28 08:23:55;;;;;;;0.00;0.00;;;25.40;1.00;;;;;;5101323;28;20040;-76
2023/08/28 08:26:21;;;;;;;0.00;0.00;;;25.40;30.00;;;;;;5104183;28;20142;-75
2023/08/28 08:28:47;;;;;;;0.00;0.00;;;25.90;54.60;;;;;;5104416;28;20046;-75
2023/08/28 08:31:12;;;;;;;0.00;0.00;;;25.90;1.00;;;;;;5103329;28;20036;-75
2023/08/28 08:33:38;;;;;;;0.00;0.00;;;26.00;1.00;;;;;;5101509;28;20130;-76
2023/08/28 08:36:05;;;;;;;0.00;0.00;;;25.40;1.00;;;;;;5101467;28;20063;-75
2023/08/28 08:38:30;;;;;;;1.75;0.60;;;23.90;1.00;;;;;;5103641;28;20048;-75
2023/08/28 08:41:01;;;;;;;0.00;0.00;;;23.50;99.90;;;;;;5105428;28;20043;-75
2023/08/28 08:43:28;;;;;;;0.00;0.00;;;24.30;1.00;;;;;;5105233;28;20121;-75
2023/08/28 08:46:07;;;;;;;0.00;0.00;;;25.20;1.00;;;;;;5100961;28;20119;-75
2023/08/28 08:48:36;;;;;;;0.10;0.10;;;25.50;1.00;;;;;;5105517;28;20048;-75
2023/08/28 08:51:08;;;;;;;0.00;0.00;;;25.90;1.00;;;;;;5103997;28;20040;-75
2023/08/28 08:53:50;;;;;;;0.60;0.60;;;26.40;1.00;;;;;;5104721;28;20040;-75
2023/08/28 08:56:23;;;;;;;0.00;0.00;;;26.80;1.00;;;;;;5107092;28;20043;-75
2023/08/28 08:58:49;;;;;;;0.15;0.15;;;27.40;1.00;;;;;;5104449;28;20036;-76
2023/08/28 09:01:15;;;;;;;0.10;0.10;;;27.30;1.00;;;;;;5103575;28;20083;-76
2023/08/28 09:03:43;;;;;;;0.00;0.00;;;26.40;1.00;;;;;;5104210;28;20079;-76
2023/08/28 09:06:09;;;;;;;0.17;0.08;;;25.00;99.90;;;;;;5106750;28;20040;-75
2023/08/28 09:08:37;;;;;;;0.43;0.38;;;24.10;99.90;;;;;;5107987;28;20096;-75
2023/08/28 09:11:08;;;;;;;0.00;0.00;;;24.30;99.90;;;;;;5106527;28;20088;-76
2023/08/28 09:13:34;;;;;;;0.43;0.22;;;24.80;99.90;;;;;;5105337;28;20177;-75
2023/08/28 09:16:00;;;;;;;0.08;0.08;;;25.60;99.90;;;;;;5104967;28;20092;-75
2023/08/28 09:18:26;;;;;;;0.00;0.00;;;26.20;1.00;;;;;;5103213;28;20123;-75
2023/08/28 09:21:09;;;;;;;0.00;0.00;;;26.70;1.00;;;;;;5103196;28;20040;-75
2023/08/28 09:23:41;;;;;;;0.03;0.03;;;27.10;1.00;;;;;;5097407;28;20040;-75
2023/08/28 09:26:07;;;;;;;0.00;0.00;;;27.30;1.00;;;;;;5104616;28;20044;-75
2023/08/28 09:28:33;;;;;;;1.98;0.43;;;27.30;99.90;;;;;;5106896;28;20047;-75
2023/08/28 09:30:58;;;;;;;0.00;0.00;;;27.30;99.90;;;;;;5106213;28;20046;-75
2023/08/28 09:33:24;;;;;;;0.00;0.00;;;27.20;99.90;;;;;;5103433;28;20040;-75
2023/08/28 09:35:49;;;;;;;0.10;0.10;;;27.20;99.90;;;;;;5103089;28;20394;-75
2023/08/28 09:38:15;;;;;;;0.00;0.00;;;27.00;99.90;;;;;;5103440;28;20047;-75
2023/08/28 09:40:41;;;;;;;0.28;0.17;;;26.30;99.90;;;;;;5109632;28;20031;-76
2023/08/28 09:43:14;;;;;;;0.45;0.25;;;26.60;99.90;;;;;;5106261;28;20440;-76
2023/08/28 09:45:41;;;;;;;0.00;0.00;;;26.70;99.90;;;;;;5106148;28;20036;-76
2023/08/28 09:48:07;;;;;;;0.00;0.00;;;26.80;99.90;;;;;;5106306;28;20040;-76
2023/08/28 09:50:37;;;;;;;0.00;0.00;;;26.90;99.90;;;;;;5104656;28;20036;-76
2023/08/28 09:53:10;;;;;;;0.00;0.00;;;26.10;99.90;;;;;;5101651;28;20543;-76
2023/08/28 09:55:38;;;;;;;0.35;0.20;;;25.00;99.90;;;;;;5104080;28;20040;-76
2023/08/28 09:58:11;;;;;;;0.00;0.00;;;24.20;99.90;;;;;;5105576;28;20081;-76
2023/08/28 10:00:40;;;;;;;0.00;0.00;;;23.90;99.90;;;;;;5105031;28;20040;-76
2023/08/28 10:03:10;;;;;;;1.98;0.60;;;24.10;99.90;;;;;;5102688;28;20127;-76
2023/08/28 10:05:56;;;;;;;0.08;0.03;;;24.40;99.90;;;;;;5102690;28;20055;-76
2023/08/28 10:08:27;;;;;;;0.10;0.08;;;24.40;99.90;;;;;;5096638;28;20051;-76
2023/08/28 10:10:56;;;;;;;0.00;0.00;;;24.30;99.90;;;;;;5103820;28;20048;-75
2023/08/28 10:13:22;;;;;;;0.20;0.17;;;23.70;99.90;;;;;;5105345;28;20138;-76
2023/08/28 10:16:05;;;;;;;0.00;0.00;;;23.60;99.90;;;;;;5105516;28;20122;-75
2023/08/28 10:18:47;;;;;;;0.20;0.20;;;23.60;99.90;;;;;;5102278;28;20036;-75
2023/08/28 10:21:14;;;;;;;0.00;0.00;;;23.70;99.90;;;;;;5105120;28;20417;-75
2023/08/28 10:23:41;;;;;;;0.00;0.00;;;23.40;99.90;;;;;;5105475;28;20393;-76
2023/08/28 10:26:09;;;;;;;0.00;0.00;;;23.00;99.90;;;;;;5104138;28;20032;-75
2023/08/28 10:28:36;;;;;;;0.00;0.00;;;21.90;99.90;;;;;;5102216;28;20038;-75
2023/08/28 10:31:05;;;;;;;0.00;0.00;;;21.40;99.90;;;;;;5102022;28;20032;-75
2023/08/28 10:33:32;;;;;;;0.00;0.00;;;21.10;99.90;;;;;;5094004;28;20549;-75
2023/08/28 10:36:00;;;;;;;0.00;0.00;;;19.70;99.90;;;;;;5101975;28;20112;-76
2023/08/28 10:38:27;;;;;;;0.00;0.00;;;18.80;1.00;;;;;;5104386;28;20078;-75
2023/08/28 10:40:56;;;;;;;0.20;0.20;;;18.10;99.90;;;;;;5105032;28;20035;-75
2023/08/28 10:43:24;;;;;;;0.00;0.00;;;17.60;1.00;;;;;;5103935;28;20499;-75
2023/08/28 10:45:52;;;;;;;0.00;0.00;;;17.20;1.00;;;;;;5101863;28;20032;-75
2023/08/28 10:48:18;;;;;;;0.00;0.00;;;16.90;99.90;;;;;;5101856;28;20043;-76
2023/08/28 10:50:44;;;;;;;0.00;0.00;;;16.50;99.90;;;;;;5104747;28;20123;-76
2023/08/28 10:53:14;;;;;;;0.00;0.00;;;16.50;52.70;;;;;;5105035;28;20035;-76
2023/08/28 10:55:58;;;;;;;0.63;0.22;;;16.30;42.00;;;;;;5103025;28;20047;-76
2023/08/28 10:58:24;;;;;;;0.00;0.00;;;16.40;1.00;;;;;;5101462;28;20135;-76
2023/08/28 11:01:14;;;;;;;0.00;0.00;;;16.50;99.90;;;;;;5103820;28;20537;-76
2023/08/28 11:03:52;;;;;;;0.00;0.00;;;16.60;99.90;;;;;;5103988;28;20521;-76
2023/08/28 11:06:39;;;;;;;0.55;0.30;;;16.70;99.90;;;;;;5101507;28;20060;-76
2023/08/28 11:09:29;;;;;;;0.90;0.40;;;17.00;99.90;;;;;;5093208;28;20383;-76
2023/08/28 11:11:58;;;;;;;0.00;0.00;;;17.40;99.90;;;;;;5102585;28;20051;-76
2023/08/28 11:14:42;;;;;;;0.22;0.13;;;17.70;99.90;;;;;;5104834;28;20128;-76
2023/08/28 11:17:10;;;;;;;0.20;0.20;;;18.10;17.00;;;;;;5101607;28;20051;-76
2023/08/28 11:19:54;;;;;;;0.55;0.40;;;18.20;99.90;;;;;;5101360;28;20054;-76
2023/08/28 11:22:35;;;;;;;0.00;0.00;;;18.50;99.90;;;;;;5093348;28;20040;-76
2023/08/28 11:25:12;;;;;;;0.00;0.00;;;18.60;99.90;;;;;;5102056;28;20406;-76
2023/08/28 11:27:42;;;;;;;0.00;0.00;;;19.00;99.90;;;;;;5104583;28;20092;-76
2023/08/28 11:30:09;;;;;;;0.00;0.00;;;19.20;1.00;;;;;;5103319;28;20039;-76
2023/08/28 11:32:37;;;;;;;0.28;0.13;;;19.50;99.90;;;;;;5101214;28;20043;-76
2023/08/28 11:35:05;;;;;;;0.00;0.00;;;19.90;99.90;;;;;;5101297;28;20028;-76
2023/08/28 11:37:35;;;;;;;0.00;0.00;;;20.30;99.90;;;;;;5092723;28;20048;-76
2023/08/28 11:40:05;;;;;;;0.70;0.45;;;20.80;99.90;;;;;;5101292;28;20042;-76
2023/08/28 11:42:31;;;;;;;0.08;0.08;;;21.30;73.00;;;;;;5103797;28;20048;-76
2023/08/28 11:44:56;;;;;;;0.00;0.00;;;21.80;99.90;;;;;;5104706;28;20486;-76
2023/08/28 11:47:26;;;;;;;0.00;0.00;;;22.60;99.90;;;;;;5103794;28;20047;-76
2023/08/28 11:49:53;;;;;;;0.28;0.22;;;23.20;99.90;;;;;;5101327;28;20072;-76
2023/08/28 11:52:19;;;;;;;0.00;0.00;;;23.90;1.00;;;;;;5101106;28;20040;-76
2023/08/28 11:54:44;;;;;;;0.00;0.00;;;23.20;1.00;;;;;;5104512;28;20415;-79
2023/08/28 11:57:11;;;;;;;0.00;0.00;;;22.70;1.00;;;;;;5104360;28;20044;-76
2023/08/28 11:59:37;;;;;;;0.80;0.32;;;22.50;99.90;;;;;;5103719;28;20173;-76
2023/08/28 12:02:04;;;;;;;0.00;0.00;;;22.50;99.90;;;;;;5101311;28;20111;-76
2023/08/28 12:04:36;;;;;;;0.00;0.00;;;22.30;99.90;;;;;;5100956;28;20051;-75
2023/08/28 12:07:05;;;;;;;0.10;0.10;;;22.20;99.90;;;;;;5096540;28;20040;-76
2023/08/28 12:09:32;;;;;;;0.38;0.35;;;22.40;99.90;;;;;;5104244;28;20050;-77
2023/08/28 12:11:59;;;;;;;0.10;0.00;;;23.30;1.00;;;;;;5101401;28;20520;-76
2023/08/28 12:14:25;;;;;;;0.00;0.00;;;24.20;1.00;;;;;;5101372;28;20048;-75
2023/08/28 12:16:59;;;;;;;0.03;0.03;;;25.20;1.00;;;;;;5101989;28;20048;-76
2023/08/28 12:19:25;;;;;;;0.00;0.00;;;25.40;1.00;;;;;;5103274;28;20055;-76
2023/08/28 12:21:50;;;;;;;0.00;0.00;;;25.40;1.00;;;;;;5103890;28;20040;-75
2023/08/28 12:24:16;;;;;;;0.00;0.00;;;24.90;99.90;;;;;;5104311;28;20043;-76
2023/08/28 12:26:43;;;;;;;0.00;0.00;;;25.30;1.00;;;;;;5103111;28;20037;-76
2023/08/28 12:29:09;;;;;;;1.35;0.38;;;25.80;1.00;;;;;;5105678;28;20046;-75
2023/08/28 12:31:36;;;;;;;0.20;0.20;;;25.60;99.90;;;;;;5107585;28;20028;-75
2023/08/28 12:34:11;;;;;;;0.10;0.03;;;25.30;99.90;;;;;;5107425;28;20119;-75
2023/08/28 12:36:37;;;;;;;;;;;25.60;99.90;;;;;;5097032;28;20050;-75
2023/08/28 12:39:03;;;;;;;0.20;0.15;;;25.70;99.90;;;;;;5104507;28;19920;-75
2023/08/28 12:41:36;;;;;;;0.00;0.00;;;25.90;99.90;;;;;;5105636;28;20385;-76
2023/08/28 12:44:02;;;;;;;0.00;0.00;;;26.20;99.90;;;;;;5107659;28;20031;-76
2023/08/28 12:46:29;;;;;;;0.20;0.10;;;26.50;99.90;;;;;;5105576;28;20047;-76
2023/08/28 12:48:54;;;;;;;0.22;0.13;;;26.60;99.90;;;;;;5104288;28;20036;-76
2023/08/28 12:51:23;;;;;;;0.10;0.10;;;26.30;99.90;;;;;;5103695;28;20032;-76